sensor_id;sensor_type;location;lat;lon;timestamp;P1;durP1;ratioP1;P2;durP2;ratioP2
46110;SDS011;31849;55.992;37.252;2024-02-16T00:02:08;31.33;;;13.70;;
46110;SDS011;31849;55.992;37.252;2024-02-16T00:07:12;28.90;;;14.30;;
46110;SDS011;31849;55.992;37.252;2024-02-16T00:12:17;29.02;;;13.15;;
46110;SDS011;31849;55.992;37.252;2024-02-16T00:17:21;32.57;;;13.30;;
46110;SDS011;31849;55.992;37.252;2024-02-16T00:22:27;31.13;;;12.67;;
46110;SDS011;31849;55.992;37.252;2024-02-16T00:27:33;30.48;;;12.60;;
46110;SDS011;31849;55.992;37.252;2024-02-16T00:32:37;28.03;;;13.67;;
46110;SDS011;31849;55.992;37.252;2024-02-16T00:37:40;32.20;;;13.00;;
46110;SDS011;31849;55.992;37.252;2024-02-16T00:42:46;32.50;;;14.38;;
46110;SDS011;31849;55.992;37.252;2024-02-16T00:47:49;29.67;;;12.53;;
46110;SDS011;31849;55.992;37.252;2024-02-16T00:52:53;30.67;;;13.45;;
46110;SDS011;31849;55.992;37.252;2024-02-16T00:57:58;28.40;;;13.03;;
46110;SDS011;31849;55.992;37.252;2024-02-16T01:03:02;31.97;;;13.10;;
46110;SDS011;31849;55.992;37.252;2024-02-16T01:08:06;32.25;;;12.98;;
46110;SDS011;31849;55.992;37.252;2024-02-16T01:13:12;30.15;;;13.43;;
46110;SDS011;31849;55.992;37.252;2024-02-16T01:18:16;32.90;;;13.70;;
46110;SDS011;31849;55.992;37.252;2024-02-16T01:23:20;35.28;;;13.02;;
46110;SDS011;31849;55.992;37.252;2024-02-16T01:28:25;34.37;;;14.23;;
46110;SDS011;31849;55.992;37.252;2024-02-16T01:33:29;30.93;;;14.47;;
46110;SDS011;31849;55.992;37.252;2024-02-16T01:38:36;31.97;;;13.63;;
46110;SDS011;31849;55.992;37.252;2024-02-16T01:43:42;29.98;;;13.70;;
46110;SDS011;31849;55.992;37.252;2024-02-16T01:48:45;32.43;;;13.77;;
46110;SDS011;31849;55.992;37.252;2024-02-16T01:53:50;30.87;;;13.40;;
46110;SDS011;31849;55.992;37.252;2024-02-16T01:58:55;35.22;;;12.98;;
46110;SDS011;31849;55.992;37.252;2024-02-16T02:03:59;31.00;;;13.03;;
46110;SDS011;31849;55.992;37.252;2024-02-16T02:09:03;32.55;;;13.93;;
46110;SDS011;31849;55.992;37.252;2024-02-16T02:14:09;30.70;;;14.15;;
46110;SDS011;31849;55.992;37.252;2024-02-16T02:19:13;30.07;;;13.57;;
46110;SDS011;31849;55.992;37.252;2024-02-16T02:24:19;32.33;;;14.48;;
46110;SDS011;31849;55.992;37.252;2024-02-16T02:29:23;35.30;;;14.57;;
46110;SDS011;31849;55.992;37.252;2024-02-16T02:34:27;31.90;;;14.98;;
46110;SDS011;31849;55.992;37.252;2024-02-16T02:39:32;32.70;;;13.88;;
46110;SDS011;31849;55.992;37.252;2024-02-16T02:44:37;31.90;;;13.70;;
46110;SDS011;31849;55.992;37.252;2024-02-16T02:49:40;34.28;;;14.40;;
46110;SDS011;31849;55.992;37.252;2024-02-16T02:54:46;29.90;;;13.95;;
46110;SDS011;31849;55.992;37.252;2024-02-16T02:59:50;35.47;;;15.30;;
46110;SDS011;31849;55.992;37.252;2024-02-16T03:04:54;34.20;;;14.48;;
46110;SDS011;31849;55.992;37.252;2024-02-16T03:09:59;32.90;;;14.60;;
46110;SDS011;31849;55.992;37.252;2024-02-16T03:15:03;30.93;;;13.50;;
46110;SDS011;31849;55.992;37.252;2024-02-16T03:20:08;31.93;;;14.50;;
46110;SDS011;31849;55.992;37.252;2024-02-16T03:25:14;29.63;;;11.43;;
46110;SDS011;31849;55.992;37.252;2024-02-16T03:30:18;37.97;;;15.30;;
46110;SDS011;31849;55.992;37.252;2024-02-16T03:35:22;34.85;;;14.85;;
46110;SDS011;31849;55.992;37.252;2024-02-16T03:40:27;34.55;;;15.18;;
46110;SDS011;31849;55.992;37.252;2024-02-16T03:45:32;30.80;;;14.03;;
46110;SDS011;31849;55.992;37.252;2024-02-16T03:50:36;36.92;;;15.38;;
46110;SDS011;31849;55.992;37.252;2024-02-16T03:55:41;34.53;;;14.25;;
46110;SDS011;31849;55.992;37.252;2024-02-16T04:00:45;30.97;;;13.73;;
46110;SDS011;31849;55.992;37.252;2024-02-16T04:06:02;30.97;;;14.23;;
46110;SDS011;31849;55.992;37.252;2024-02-16T04:11:10;29.00;;;13.43;;
46110;SDS011;31849;55.992;37.252;2024-02-16T04:16:15;29.97;;;15.00;;
46110;SDS011;31849;55.992;37.252;2024-02-16T04:21:19;36.88;;;16.33;;
46110;SDS011;31849;55.992;37.252;2024-02-16T04:31:29;35.28;;;15.98;;
46110;SDS011;31849;55.992;37.252;2024-02-16T04:36:32;35.10;;;16.60;;
46110;SDS011;31849;55.992;37.252;2024-02-16T04:41:38;37.45;;;16.80;;
46110;SDS011;31849;55.992;37.252;2024-02-16T04:46:42;44.37;;;17.10;;
46110;SDS011;31849;55.992;37.252;2024-02-16T04:51:45;36.75;;;16.83;;
46110;SDS011;31849;55.992;37.252;2024-02-16T04:56:51;30.55;;;13.73;;
46110;SDS011;31849;55.992;37.252;2024-02-16T05:01:55;34.30;;;15.60;;
46110;SDS011;31849;55.992;37.252;2024-02-16T05:12:23;34.03;;;15.30;;
46110;SDS011;31849;55.992;37.252;2024-02-16T05:17:27;37.47;;;15.87;;
46110;SDS011;31849;55.992;37.252;2024-02-16T05:22:30;35.20;;;15.10;;
46110;SDS011;31849;55.992;37.252;2024-02-16T05:27:36;33.03;;;15.93;;
46110;SDS011;31849;55.992;37.252;2024-02-16T05:32:39;34.80;;;15.90;;
46110;SDS011;31849;55.992;37.252;2024-02-16T05:37:44;43.45;;;18.85;;
46110;SDS011;31849;55.992;37.252;2024-02-16T05:42:53;41.53;;;18.23;;
46110;SDS011;31849;55.992;37.252;2024-02-16T05:48:00;35.07;;;16.93;;
46110;SDS011;31849;55.992;37.252;2024-02-16T05:58:36;39.03;;;16.67;;
46110;SDS011;31849;55.992;37.252;2024-02-16T06:03:41;42.50;;;18.47;;
46110;SDS011;31849;55.992;37.252;2024-02-16T06:08:45;44.42;;;19.55;;
46110;SDS011;31849;55.992;37.252;2024-02-16T06:18:54;38.70;;;16.98;;
46110;SDS011;31849;55.992;37.252;2024-02-16T06:24:02;33.87;;;16.57;;
46110;SDS011;31849;55.992;37.252;2024-02-16T06:29:09;41.97;;;19.00;;
46110;SDS011;31849;55.992;37.252;2024-02-16T06:34:13;43.73;;;17.83;;
46110;SDS011;31849;55.992;37.252;2024-02-16T06:39:17;35.92;;;17.15;;
46110;SDS011;31849;55.992;37.252;2024-02-16T06:44:23;39.43;;;17.60;;
46110;SDS011;31849;55.992;37.252;2024-02-16T06:49:27;41.97;;;18.73;;
46110;SDS011;31849;55.992;37.252;2024-02-16T06:54:31;39.90;;;17.92;;
46110;SDS011;31849;55.992;37.252;2024-02-16T06:59:37;36.25;;;18.00;;
46110;SDS011;31849;55.992;37.252;2024-02-16T07:04:40;47.93;;;19.40;;
46110;SDS011;31849;55.992;37.252;2024-02-16T07:09:45;44.60;;;19.73;;
46110;SDS011;31849;55.992;37.252;2024-02-16T07:14:50;43.00;;;17.30;;
46110;SDS011;31849;55.992;37.252;2024-02-16T07:19:54;47.83;;;19.00;;
46110;SDS011;31849;55.992;37.252;2024-02-16T07:24:59;41.33;;;20.38;;
46110;SDS011;31849;55.992;37.252;2024-02-16T07:35:37;42.47;;;19.57;;
46110;SDS011;31849;55.992;37.252;2024-02-16T07:40:41;47.92;;;19.90;;
46110;SDS011;31849;55.992;37.252;2024-02-16T07:45:49;41.53;;;19.30;;
46110;SDS011;31849;55.992;37.252;2024-02-16T07:50:56;35.57;;;16.63;;
46110;SDS011;31849;55.992;37.252;2024-02-16T07:56:05;37.43;;;17.73;;
46110;SDS011;31849;55.992;37.252;2024-02-16T08:01:11;35.15;;;16.80;;
46110;SDS011;31849;55.992;37.252;2024-02-16T08:06:17;33.63;;;16.67;;
46110;SDS011;31849;55.992;37.252;2024-02-16T08:11:23;40.30;;;16.53;;
46110;SDS011;31849;55.992;37.252;2024-02-16T08:16:32;35.90;;;17.53;;
46110;SDS011;31849;55.992;37.252;2024-02-16T08:21:36;34.47;;;16.27;;
46110;SDS011;31849;55.992;37.252;2024-02-16T08:26:40;34.88;;;16.20;;
46110;SDS011;31849;55.992;37.252;2024-02-16T08:31:45;29.88;;;15.32;;
46110;SDS011;31849;55.992;37.252;2024-02-16T08:36:52;31.43;;;16.10;;
46110;SDS011;31849;55.992;37.252;2024-02-16T08:47:02;32.67;;;16.67;;
46110;SDS011;31849;55.992;37.252;2024-02-16T08:52:06;35.47;;;15.93;;
46110;SDS011;31849;55.992;37.252;2024-02-16T08:57:10;32.97;;;16.90;;
46110;SDS011;31849;55.992;37.252;2024-02-16T09:02:16;31.17;;;16.02;;
46110;SDS011;31849;55.992;37.252;2024-02-16T09:07:20;38.07;;;17.40;;
46110;SDS011;31849;55.992;37.252;2024-02-16T09:17:30;34.10;;;13.90;;
46110;SDS011;31849;55.992;37.252;2024-02-16T09:22:34;38.27;;;16.73;;
46110;SDS011;31849;55.992;37.252;2024-02-16T09:27:39;34.00;;;16.80;;
46110;SDS011;31849;55.992;37.252;2024-02-16T09:32:49;33.13;;;15.77;;
46110;SDS011;31849;55.992;37.252;2024-02-16T09:37:53;37.87;;;16.70;;
46110;SDS011;31849;55.992;37.252;2024-02-16T09:42:58;34.87;;;15.87;;
46110;SDS011;31849;55.992;37.252;2024-02-16T09:48:04;36.90;;;18.17;;
46110;SDS011;31849;55.992;37.252;2024-02-16T09:53:12;32.67;;;16.43;;
46110;SDS011;31849;55.992;37.252;2024-02-16T09:58:16;34.47;;;16.95;;
46110;SDS011;31849;55.992;37.252;2024-02-16T10:03:26;34.37;;;16.80;;
46110;SDS011;31849;55.992;37.252;2024-02-16T10:08:31;29.20;;;15.57;;
46110;SDS011;31849;55.992;37.252;2024-02-16T10:13:35;37.97;;;16.52;;
46110;SDS011;31849;55.992;37.252;2024-02-16T10:18:41;34.67;;;16.52;;
46110;SDS011;31849;55.992;37.252;2024-02-16T10:23:47;33.30;;;15.20;;
46110;SDS011;31849;55.992;37.252;2024-02-16T10:29:01;47.03;;;18.03;;
46110;SDS011;31849;55.992;37.252;2024-02-16T10:34:07;32.45;;;16.35;;
46110;SDS011;31849;55.992;37.252;2024-02-16T10:39:12;34.28;;;18.80;;
46110;SDS011;31849;55.992;37.252;2024-02-16T10:44:16;32.38;;;15.82;;
46110;SDS011;31849;55.992;37.252;2024-02-16T10:49:22;33.92;;;16.95;;
46110;SDS011;31849;55.992;37.252;2024-02-16T10:54:28;34.78;;;17.85;;
46110;SDS011;31849;55.992;37.252;2024-02-16T10:59:37;36.78;;;16.27;;
46110;SDS011;31849;55.992;37.252;2024-02-16T11:04:47;32.95;;;17.35;;
46110;SDS011;31849;55.992;37.252;2024-02-16T11:09:52;29.55;;;15.82;;
46110;SDS011;31849;55.992;37.252;2024-02-16T11:14:56;34.90;;;17.00;;
46110;SDS011;31849;55.992;37.252;2024-02-16T11:20:01;34.38;;;16.98;;
46110;SDS011;31849;55.992;37.252;2024-02-16T11:25:06;32.40;;;17.48;;
46110;SDS011;31849;55.992;37.252;2024-02-16T11:30:11;34.90;;;18.10;;
46110;SDS011;31849;55.992;37.252;2024-02-16T11:35:17;36.67;;;17.45;;
46110;SDS011;31849;55.992;37.252;2024-02-16T11:40:21;36.70;;;17.80;;
46110;SDS011;31849;55.992;37.252;2024-02-16T11:45:39;37.80;;;20.00;;
46110;SDS011;31849;55.992;37.252;2024-02-16T11:50:44;36.27;;;18.10;;
46110;SDS011;31849;55.992;37.252;2024-02-16T11:55:49;33.97;;;18.02;;
46110;SDS011;31849;55.992;37.252;2024-02-16T12:00:53;36.58;;;18.13;;
46110;SDS011;31849;55.992;37.252;2024-02-16T12:06:05;37.83;;;18.50;;
46110;SDS011;31849;55.992;37.252;2024-02-16T12:11:09;37.10;;;18.30;;
46110;SDS011;31849;55.992;37.252;2024-02-16T12:16:13;34.67;;;18.07;;
46110;SDS011;31849;55.992;37.252;2024-02-16T12:21:19;33.55;;;18.77;;
46110;SDS011;31849;55.992;37.252;2024-02-16T12:26:23;41.17;;;19.35;;
46110;SDS011;31849;55.992;37.252;2024-02-16T12:31:27;45.70;;;19.67;;
46110;SDS011;31849;55.992;37.252;2024-02-16T12:36:34;38.75;;;20.42;;
46110;SDS011;31849;55.992;37.252;2024-02-16T12:41:39;42.13;;;21.02;;
46110;SDS011;31849;55.992;37.252;2024-02-16T12:46:45;43.00;;;20.38;;
46110;SDS011;31849;55.992;37.252;2024-02-16T12:51:51;43.40;;;21.67;;
46110;SDS011;31849;55.992;37.252;2024-02-16T12:56:56;42.35;;;20.30;;
46110;SDS011;31849;55.992;37.252;2024-02-16T13:02:00;43.53;;;20.80;;
46110;SDS011;31849;55.992;37.252;2024-02-16T13:07:06;42.27;;;19.90;;
46110;SDS011;31849;55.992;37.252;2024-02-16T13:12:10;40.20;;;20.33;;
46110;SDS011;31849;55.992;37.252;2024-02-16T13:17:16;37.77;;;20.63;;
46110;SDS011;31849;55.992;37.252;2024-02-16T13:22:21;39.85;;;20.60;;
46110;SDS011;31849;55.992;37.252;2024-02-16T13:27:25;40.95;;;21.02;;
46110;SDS011;31849;55.992;37.252;2024-02-16T13:32:29;39.78;;;20.73;;
46110;SDS011;31849;55.992;37.252;2024-02-16T13:37:35;39.10;;;20.73;;
46110;SDS011;31849;55.992;37.252;2024-02-16T13:42:39;42.87;;;21.50;;
46110;SDS011;31849;55.992;37.252;2024-02-16T13:47:43;41.10;;;20.92;;
46110;SDS011;31849;55.992;37.252;2024-02-16T13:52:49;44.15;;;20.63;;
46110;SDS011;31849;55.992;37.252;2024-02-16T13:57:53;43.00;;;21.17;;
46110;SDS011;31849;55.992;37.252;2024-02-16T14:03:04;44.13;;;21.57;;
46110;SDS011;31849;55.992;37.252;2024-02-16T14:08:12;41.73;;;20.97;;
46110;SDS011;31849;55.992;37.252;2024-02-16T14:13:18;44.08;;;21.05;;
46110;SDS011;31849;55.992;37.252;2024-02-16T14:18:22;47.88;;;23.52;;
46110;SDS011;31849;55.992;37.252;2024-02-16T14:23:37;44.67;;;21.70;;
46110;SDS011;31849;55.992;37.252;2024-02-16T14:28:42;46.33;;;22.55;;
46110;SDS011;31849;55.992;37.252;2024-02-16T14:33:46;50.50;;;22.88;;
46110;SDS011;31849;55.992;37.252;2024-02-16T14:43:56;45.55;;;21.88;;
46110;SDS011;31849;55.992;37.252;2024-02-16T14:49:00;40.30;;;20.40;;
46110;SDS011;31849;55.992;37.252;2024-02-16T14:54:06;43.70;;;19.50;;
46110;SDS011;31849;55.992;37.252;2024-02-16T14:59:11;43.00;;;19.93;;
46110;SDS011;31849;55.992;37.252;2024-02-16T15:04:15;42.78;;;20.20;;
46110;SDS011;31849;55.992;37.252;2024-02-16T15:09:35;40.03;;;19.10;;
46110;SDS011;31849;55.992;37.252;2024-02-16T15:14:38;41.50;;;18.27;;
46110;SDS011;31849;55.992;37.252;2024-02-16T15:19:43;41.47;;;19.27;;
46110;SDS011;31849;55.992;37.252;2024-02-16T15:24:48;38.43;;;19.57;;
46110;SDS011;31849;55.992;37.252;2024-02-16T15:29:53;37.83;;;18.13;;
46110;SDS011;31849;55.992;37.252;2024-02-16T15:34:57;38.17;;;18.25;;
46110;SDS011;31849;55.992;37.252;2024-02-16T15:40:16;41.30;;;20.37;;
46110;SDS011;31849;55.992;37.252;2024-02-16T15:45:34;37.72;;;18.58;;
46110;SDS011;31849;55.992;37.252;2024-02-16T15:50:42;39.42;;;19.10;;
46110;SDS011;31849;55.992;37.252;2024-02-16T15:55:48;38.95;;;18.15;;
46110;SDS011;31849;55.992;37.252;2024-02-16T16:00:52;46.47;;;21.57;;
46110;SDS011;31849;55.992;37.252;2024-02-16T16:05:56;43.83;;;20.05;;
46110;SDS011;31849;55.992;37.252;2024-02-16T16:11:01;43.03;;;20.08;;
46110;SDS011;31849;55.992;37.252;2024-02-16T16:16:05;43.97;;;19.80;;
46110;SDS011;31849;55.992;37.252;2024-02-16T16:21:10;35.90;;;17.37;;
46110;SDS011;31849;55.992;37.252;2024-02-16T16:26:16;40.95;;;17.77;;
46110;SDS011;31849;55.992;37.252;2024-02-16T16:31:22;36.73;;;18.33;;
46110;SDS011;31849;55.992;37.252;2024-02-16T16:36:26;40.22;;;18.90;;
46110;SDS011;31849;55.992;37.252;2024-02-16T16:41:32;40.30;;;18.98;;
46110;SDS011;31849;55.992;37.252;2024-02-16T16:46:36;39.83;;;17.80;;
46110;SDS011;31849;55.992;37.252;2024-02-16T16:51:40;40.05;;;20.00;;
46110;SDS011;31849;55.992;37.252;2024-02-16T16:56:45;36.35;;;18.48;;
46110;SDS011;31849;55.992;37.252;2024-02-16T17:01:49;37.47;;;17.83;;
46110;SDS011;31849;55.992;37.252;2024-02-16T17:06:53;43.65;;;17.80;;
46110;SDS011;31849;55.992;37.252;2024-02-16T17:11:59;36.50;;;17.42;;
46110;SDS011;31849;55.992;37.252;2024-02-16T17:17:05;31.83;;;16.37;;
46110;SDS011;31849;55.992;37.252;2024-02-16T17:22:09;35.72;;;16.38;;
46110;SDS011;31849;55.992;37.252;2024-02-16T17:27:15;36.00;;;17.05;;
46110;SDS011;31849;55.992;37.252;2024-02-16T17:32:20;37.80;;;17.00;;
46110;SDS011;31849;55.992;37.252;2024-02-16T17:37:25;39.20;;;16.57;;
46110;SDS011;31849;55.992;37.252;2024-02-16T17:42:31;29.90;;;15.50;;
46110;SDS011;31849;55.992;37.252;2024-02-16T17:47:35;35.47;;;17.20;;
46110;SDS011;31849;55.992;37.252;2024-02-16T17:52:40;33.00;;;15.10;;
46110;SDS011;31849;55.992;37.252;2024-02-16T17:57:46;39.90;;;18.67;;
46110;SDS011;31849;55.992;37.252;2024-02-16T18:02:50;35.37;;;15.73;;
46110;SDS011;31849;55.992;37.252;2024-02-16T18:13:00;35.07;;;16.47;;
46110;SDS011;31849;55.992;37.252;2024-02-16T18:18:04;38.43;;;16.37;;
46110;SDS011;31849;55.992;37.252;2024-02-16T18:23:08;35.70;;;15.87;;
46110;SDS011;31849;55.992;37.252;2024-02-16T18:28:14;37.03;;;17.15;;
46110;SDS011;31849;55.992;37.252;2024-02-16T18:33:26;29.83;;;14.23;;
46110;SDS011;31849;55.992;37.252;2024-02-16T18:38:45;37.83;;;16.83;;
46110;SDS011;31849;55.992;37.252;2024-02-16T18:43:50;36.50;;;16.77;;
46110;SDS011;31849;55.992;37.252;2024-02-16T18:48:54;37.73;;;17.17;;
46110;SDS011;31849;55.992;37.252;2024-02-16T18:53:58;39.38;;;17.67;;
46110;SDS011;31849;55.992;37.252;2024-02-16T19:04:10;38.57;;;17.77;;
46110;SDS011;31849;55.992;37.252;2024-02-16T19:09:14;35.15;;;16.23;;
46110;SDS011;31849;55.992;37.252;2024-02-16T19:14:20;42.50;;;17.08;;
46110;SDS011;31849;55.992;37.252;2024-02-16T19:19:26;37.63;;;18.50;;
46110;SDS011;31849;55.992;37.252;2024-02-16T19:24:32;41.07;;;17.57;;
46110;SDS011;31849;55.992;37.252;2024-02-16T19:29:46;36.00;;;16.70;;
46110;SDS011;31849;55.992;37.252;2024-02-16T19:34:51;33.60;;;15.60;;
46110;SDS011;31849;55.992;37.252;2024-02-16T19:45:01;30.70;;;15.73;;
46110;SDS011;31849;55.992;37.252;2024-02-16T19:50:06;37.17;;;16.23;;
46110;SDS011;31849;55.992;37.252;2024-02-16T19:55:11;34.47;;;15.83;;
46110;SDS011;31849;55.992;37.252;2024-02-16T20:00:19;34.73;;;17.03;;
46110;SDS011;31849;55.992;37.252;2024-02-16T20:05:24;38.57;;;16.30;;
46110;SDS011;31849;55.992;37.252;2024-02-16T20:10:27;34.30;;;16.75;;
46110;SDS011;31849;55.992;37.252;2024-02-16T20:15:33;38.00;;;16.83;;
46110;SDS011;31849;55.992;37.252;2024-02-16T20:20:37;34.27;;;15.27;;
46110;SDS011;31849;55.992;37.252;2024-02-16T20:25:41;33.05;;;16.13;;
46110;SDS011;31849;55.992;37.252;2024-02-16T20:30:47;31.20;;;15.63;;
46110;SDS011;31849;55.992;37.252;2024-02-16T20:35:50;33.83;;;15.67;;
46110;SDS011;31849;55.992;37.252;2024-02-16T20:40:55;34.40;;;16.02;;
46110;SDS011;31849;55.992;37.252;2024-02-16T20:46:01;36.13;;;17.20;;
46110;SDS011;31849;55.992;37.252;2024-02-16T20:51:07;35.07;;;16.40;;
46110;SDS011;31849;55.992;37.252;2024-02-16T20:56:11;35.92;;;15.55;;
46110;SDS011;31849;55.992;37.252;2024-02-16T21:01:19;30.53;;;14.17;;
46110;SDS011;31849;55.992;37.252;2024-02-16T21:06:23;34.07;;;16.03;;
46110;SDS011;31849;55.992;37.252;2024-02-16T21:16:51;31.20;;;14.47;;
46110;SDS011;31849;55.992;37.252;2024-02-16T21:21:55;37.10;;;16.07;;
46110;SDS011;31849;55.992;37.252;2024-02-16T21:26:59;29.55;;;13.63;;
46110;SDS011;31849;55.992;37.252;2024-02-16T21:32:05;27.90;;;12.70;;
46110;SDS011;31849;55.992;37.252;2024-02-16T21:37:09;33.40;;;15.83;;
46110;SDS011;31849;55.992;37.252;2024-02-16T21:42:27;34.70;;;14.87;;
46110;SDS011;31849;55.992;37.252;2024-02-16T21:47:33;29.98;;;15.75;;
46110;SDS011;31849;55.992;37.252;2024-02-16T21:52:38;37.77;;;16.17;;
46110;SDS011;31849;55.992;37.252;2024-02-16T21:57:42;28.20;;;13.73;;
46110;SDS011;31849;55.992;37.252;2024-02-16T22:02:47;30.88;;;14.77;;
46110;SDS011;31849;55.992;37.252;2024-02-16T22:07:51;32.87;;;16.23;;
46110;SDS011;31849;55.992;37.252;2024-02-16T22:12:55;33.47;;;16.15;;
46110;SDS011;31849;55.992;37.252;2024-02-16T22:18:01;27.50;;;13.32;;
46110;SDS011;31849;55.992;37.252;2024-02-16T22:23:18;35.50;;;17.10;;
46110;SDS011;31849;55.992;37.252;2024-02-16T22:28:22;33.33;;;14.02;;
46110;SDS011;31849;55.992;37.252;2024-02-16T22:33:28;28.95;;;13.48;;
46110;SDS011;31849;55.992;37.252;2024-02-16T22:38:33;30.57;;;14.07;;
46110;SDS011;31849;55.992;37.252;2024-02-16T22:43:37;39.60;;;18.30;;
46110;SDS011;31849;55.992;37.252;2024-02-16T22:48:42;39.88;;;17.55;;
46110;SDS011;31849;55.992;37.252;2024-02-16T22:53:46;32.03;;;14.60;;
46110;SDS011;31849;55.992;37.252;2024-02-16T22:58:50;32.70;;;15.73;;
46110;SDS011;31849;55.992;37.252;2024-02-16T23:03:56;31.80;;;16.15;;
46110;SDS011;31849;55.992;37.252;2024-02-16T23:09:00;28.60;;;13.73;;
46110;SDS011;31849;55.992;37.252;2024-02-16T23:14:04;35.47;;;16.48;;
46110;SDS011;31849;55.992;37.252;2024-02-16T23:19:10;33.17;;;16.03;;
46110;SDS011;31849;55.992;37.252;2024-02-16T23:24:14;35.47;;;16.07;;
46110;SDS011;31849;55.992;37.252;2024-02-16T23:29:18;29.87;;;13.37;;
46110;SDS011;31849;55.992;37.252;2024-02-16T23:34:24;36.13;;;17.08;;
46110;SDS011;31849;55.992;37.252;2024-02-16T23:39:28;35.57;;;16.73;;
46110;SDS011;31849;55.992;37.252;2024-02-16T23:44:33;35.50;;;16.80;;
46110;SDS011;31849;55.992;37.252;2024-02-16T23:49:38;31.42;;;15.63;;
46110;SDS011;31849;55.992;37.252;2024-02-16T23:54:42;32.87;;;14.07;;
46110;SDS011;31849;55.992;37.252;2024-02-16T23:59:46;35.60;;;16.40;;
